Ithaca Tompkins Regional Airport
KITH : now visible

Aeroporto :











RITROVATECI SU...

 
LOGIN :

Iscrizione | Disclaimer

   EN    FR    IT 

 









Sommario :    VFR   VFR Marginale   IFR   IFR Intensivo   IFR Molto Intensivo
Visibilità : 
Base nubi : 
>= 8 km
>= 3000ft
5 / 8 km
1000 / 3000 ft
1500m / 5 km
500 / 1000 ft
800 / 1500m
200 / 500 ft
< 800m
< 200 ft
Simboli :   Temporali  Nebbia  Neve Forte  Precipitazioni Forti  Vento > 20 kt






- Altitudine del aeroporto : 1099 ft
- Codice IATA : ITH


KITH - Ithaca Tompkins Regional

ULTIMO METAR :
  • 271956Z 29013KT 10SM -SN OVC015 01/M01 A2968 RMK AO2 RAB46E52 SLP060 P0000 T00111011

METARs OBSOLETI :
  • 271856Z 31009KT 9SM -SN OVC015 01/M01 A2967 RMK AO2 SLP056 P0000 T00111006
  • 271756Z 30013KT 4SM -SN BR OVC015 01/M01 A2968 RMK AO2 SLP059 P0000 60001 T00061011 10011 21006 50001

TAF KITH
Valido dal 27 a 18 ore il 28 a 18 ore UTC


271720Z 2718/2818 29011KT 6SM -SN BKN018 OVC025
FM272100 31009KT 5SM -SN BR OVC013
FM280500 31008KT 3SM -SN BR BKN008 OVC015
FM281500 32009KT 6SM -SN BR OVC023



MetMap, La meteo Aeronautica in un colpo d'occhio ! - Copyright ORBIFLY Dicembre 2007 - Disclaimer

ORBIFLY MET'MAP TEAM :

Programmazione e sviluppo : Alexandra Zaïnal
Concezione : Baudouin d'Aumeries
Aiuto per la programmazione : Marc-Olivier Méhu
Supporto tecnico e logistico : Manuel Goepfert
Aiuto per la traduzione : Arnaldo La Scala

Contatto : metmap@orbifly.com




FONTI E CREDITI :

   NOAA       Earth
Advisory